createdAt,value
2022-12-15T00:00:24.526Z,100619.94
2022-12-15T00:03:11.646Z,100624.28
2022-12-15T00:05:57.903Z,100622.34
2022-12-15T00:08:44.699Z,100636.03
2022-12-15T00:11:31.252Z,100629.31
2022-12-15T00:14:18.142Z,100644.66
2022-12-15T00:17:04.246Z,100645.47
2022-12-15T00:19:51.187Z,100647.00
2022-12-15T00:22:37.737Z,100648.78
2022-12-15T00:25:25.295Z,100656.41
2022-12-15T00:28:11.808Z,100643.59
2022-12-15T00:31:02.224Z,100642.81
2022-12-15T00:33:49.021Z,100653.06
2022-12-15T00:36:35.677Z,100642.88
2022-12-15T00:39:04.269Z,100657.47
2022-12-15T00:41:32.586Z,100652.44
2022-12-15T00:44:00.458Z,100655.78
2022-12-15T00:46:46.509Z,100638.66
2022-12-15T00:49:33.428Z,100665.09
2022-12-15T00:52:19.887Z,100653.16
2022-12-15T00:55:09.270Z,100665.88
2022-12-15T00:57:56.179Z,100660.75
2022-12-15T01:00:44.195Z,100662.66
2022-12-15T01:03:40.566Z,100666.97
2022-12-15T01:06:29.417Z,100663.53
2022-12-15T01:09:16.011Z,100662.66
2022-12-15T01:12:03.151Z,100678.16
2022-12-15T01:14:51.032Z,100669.66
2022-12-15T01:17:38.741Z,100673.97
2022-12-15T01:20:20.383Z,100677.41
2022-12-15T01:22:53.780Z,100686.94
2022-12-15T01:25:24.279Z,100681.69
2022-12-15T01:27:52.877Z,100679.88
2022-12-15T01:30:23.386Z,100687.63
2022-12-15T01:32:51.674Z,100691.00
2022-12-15T01:35:20.786Z,100685.84
2022-12-15T01:37:50.344Z,100693.72
2022-12-15T01:40:38.601Z,100685.97
2022-12-15T01:43:29.955Z,100690.38
2022-12-15T01:46:02.323Z,100700.78
2022-12-15T01:48:52.309Z,100704.19
2022-12-15T01:51:20.107Z,100704.97
2022-12-15T01:54:03.824Z,100711.00
2022-12-15T01:56:37.752Z,100714.41
2022-12-15T01:59:15.458Z,100711.72
2022-12-15T02:01:43.365Z,100704.97
2022-12-15T02:04:21.993Z,100726.44
2022-12-15T02:06:49.992Z,100732.56
2022-12-15T02:09:23.514Z,100731.69
2022-12-15T02:12:05.144Z,100734.38
2022-12-15T02:14:48.315Z,100723.16
2022-12-15T02:17:28.014Z,100724.19
2022-12-15T02:20:34.000Z,100714.38
2022-12-15T02:23:20.041Z,100728.06
2022-12-15T02:25:50.962Z,100722.63
2022-12-15T02:28:35.302Z,100731.06
2022-12-15T02:31:38.106Z,100734.72
2022-12-15T02:34:17.148Z,100720.31
2022-12-15T02:36:50.822Z,100724.97
2022-12-15T02:39:19.316Z,100738.78
2022-12-15T02:41:49.347Z,100740.62
2022-12-15T02:44:25.606Z,100742.66
2022-12-15T02:47:21.092Z,100741.87
2022-12-15T02:50:10.646Z,100742.78
2022-12-15T02:53:08.055Z,100743.34
2022-12-15T02:55:55.890Z,100746.38
2022-12-15T02:59:05.222Z,100740.78
2022-12-15T03:01:58.429Z,100735.59
2022-12-15T03:04:34.838Z,100738.06
2022-12-15T03:07:10.227Z,100734.53
2022-12-15T03:09:38.694Z,100742.56
2022-12-15T03:12:07.311Z,100745.97
2022-12-15T03:14:35.162Z,100741.72
2022-12-15T03:17:04.504Z,100740.56
2022-12-15T03:19:32.264Z,100737.94
2022-12-15T03:21:59.927Z,100741.53
2022-12-15T03:24:28.145Z,100741.00
2022-12-15T03:26:56.099Z,100743.94
2022-12-15T03:29:24.041Z,100744.00
2022-12-15T03:31:52.339Z,100751.87
2022-12-15T03:34:20.146Z,100746.88
2022-12-15T03:36:51.137Z,100741.66
2022-12-15T03:39:19.370Z,100745.22
2022-12-15T03:41:47.274Z,100743.59
2022-12-15T03:44:15.203Z,100750.34
2022-12-15T03:46:43.466Z,100744.12
2022-12-15T03:49:11.257Z,100752.81
2022-12-15T03:51:39.138Z,100753.50
2022-12-15T03:54:07.769Z,100741.53
2022-12-15T03:56:35.735Z,100755.16
2022-12-15T03:59:03.668Z,100759.44
2022-12-15T04:01:37.152Z,100763.66
2022-12-15T04:04:06.004Z,100760.22
2022-12-15T04:06:33.890Z,100762.00
2022-12-15T04:09:01.836Z,100749.41
2022-12-15T04:11:30.215Z,100778.47
2022-12-15T04:13:58.075Z,100775.81
2022-12-15T04:16:25.954Z,100785.81
2022-12-15T04:19:14.168Z,100781.50
2022-12-15T04:21:42.033Z,100773.63
2022-12-15T04:24:28.569Z,100778.66
2022-12-15T04:27:14.994Z,100790.56
2022-12-15T04:30:01.886Z,100797.59
2022-12-15T04:32:50.219Z,100799.31
2022-12-15T04:35:37.412Z,100796.03
2022-12-15T04:38:24.040Z,100797.91
2022-12-15T04:41:10.886Z,100809.66
2022-12-15T04:44:00.436Z,100802.03
2022-12-15T04:46:47.311Z,100804.41
2022-12-15T04:49:33.897Z,100800.16
2022-12-15T04:52:20.393Z,100809.56
2022-12-15T04:55:09.435Z,100805.38
2022-12-15T04:57:56.468Z,100813.97
2022-12-15T05:00:42.946Z,100814.81
2022-12-15T05:03:29.625Z,100831.22
2022-12-15T05:06:17.324Z,100831.94
2022-12-15T05:09:03.923Z,100830.22
2022-12-15T05:11:50.282Z,100823.37
2022-12-15T05:14:37.252Z,100841.44
2022-12-15T05:17:23.903Z,100838.88
2022-12-15T05:20:10.738Z,100849.12
2022-12-15T05:22:57.234Z,100859.41
2022-12-15T05:25:44.039Z,100841.50
2022-12-15T05:28:30.321Z,100853.53
2022-12-15T05:31:17.037Z,100856.12
2022-12-15T05:33:45.820Z,100854.28
2022-12-15T05:36:14.015Z,100857.81
2022-12-15T05:38:41.935Z,100856.12
2022-12-15T05:41:09.808Z,100861.31
2022-12-15T05:43:38.019Z,100869.84
2022-12-15T05:46:06.413Z,100861.09
2022-12-15T05:48:34.128Z,100870.56
2022-12-15T05:51:11.304Z,100868.84
2022-12-15T05:53:40.653Z,100870.63
2022-12-15T05:56:13.908Z,100883.53
2022-12-15T05:58:45.456Z,100885.34
2022-12-15T06:01:17.860Z,100886.22
2022-12-15T06:03:46.183Z,100897.34
2022-12-15T06:06:14.414Z,100899.00
2022-12-15T06:08:43.579Z,100894.66
2022-12-15T06:11:17.329Z,100904.25
2022-12-15T06:13:45.450Z,100904.19
2022-12-15T06:16:22.149Z,100916.34
2022-12-15T06:18:54.441Z,100923.28
2022-12-15T06:21:25.564Z,100931.56
2022-12-15T06:23:54.016Z,100929.69
2022-12-15T06:26:23.669Z,100938.25
2022-12-15T06:28:52.330Z,100939.72
2022-12-15T06:31:23.258Z,100941.72
2022-12-15T06:34:01.234Z,100945.34
2022-12-15T06:36:31.269Z,100942.34
2022-12-15T06:39:01.248Z,100953.75
2022-12-15T06:41:32.697Z,100951.47
2022-12-15T06:44:01.872Z,100965.03
2022-12-15T06:46:31.571Z,100970.09
2022-12-15T06:49:00.665Z,100973.09
2022-12-15T06:51:29.653Z,100961.03
2022-12-15T06:53:57.522Z,100976.41
2022-12-15T06:56:34.383Z,100977.19
2022-12-15T06:59:05.341Z,100975.97
2022-12-15T07:01:34.018Z,100975.81
2022-12-15T07:04:04.676Z,100975.50
2022-12-15T07:06:37.792Z,100974.69
2022-12-15T07:09:08.621Z,100995.78
2022-12-15T07:11:37.070Z,100985.81
2022-12-15T07:14:05.150Z,101000.78
2022-12-15T07:16:33.793Z,100992.63
2022-12-15T07:19:05.309Z,100996.72
2022-12-15T07:21:33.599Z,101004.66
2022-12-15T07:24:02.183Z,100999.50
2022-12-15T07:26:30.841Z,100994.38
2022-12-15T07:28:59.077Z,100983.94
2022-12-15T07:34:12.994Z,100979.84
2022-12-15T07:36:40.916Z,100991.34
2022-12-15T07:39:11.518Z,100985.41
2022-12-15T07:41:40.892Z,100987.03
2022-12-15T07:44:08.591Z,100991.97
2022-12-15T07:46:36.473Z,100991.38
2022-12-15T07:49:04.668Z,100998.12
2022-12-15T07:51:32.356Z,100999.41
2022-12-15T07:54:00.002Z,101001.56
2022-12-15T07:56:28.184Z,101003.69
2022-12-15T07:58:55.966Z,100998.06
2022-12-15T08:01:24.933Z,100987.97
2022-12-15T08:03:53.401Z,100997.13
2022-12-15T08:06:21.385Z,100996.81
2022-12-15T08:08:50.360Z,100995.75
2022-12-15T08:11:21.796Z,100995.56
2022-12-15T08:14:02.648Z,100997.03
2022-12-15T08:16:32.430Z,100999.47
2022-12-15T08:19:00.309Z,100991.50
2022-12-15T08:21:28.113Z,100994.38
2022-12-15T08:23:56.284Z,100980.00
2022-12-15T08:26:29.988Z,100983.34
2022-12-15T08:29:31.881Z,100982.47
2022-12-15T08:31:52.202Z,100974.34
2022-12-15T08:34:20.919Z,100976.03
2022-12-15T08:36:48.725Z,100978.09
2022-12-15T08:39:16.841Z,100979.19
2022-12-15T08:41:45.517Z,100986.59
2022-12-15T08:44:13.439Z,100988.50
2022-12-15T08:46:41.187Z,100990.34
2022-12-15T08:49:11.064Z,100989.69
2022-12-15T08:51:40.206Z,101004.41
2022-12-15T08:54:09.178Z,100992.91
2022-12-15T08:56:37.506Z,100995.12
2022-12-15T08:59:05.227Z,101004.59
2022-12-15T09:01:33.650Z,100999.34
2022-12-15T09:04:05.567Z,101002.91
2022-12-15T09:06:37.114Z,100999.25
2022-12-15T09:09:08.974Z,101003.72
2022-12-15T09:11:37.042Z,100990.03
2022-12-15T09:14:05.327Z,100999.37
2022-12-15T09:16:33.398Z,100993.50
2022-12-15T09:19:01.611Z,100998.63
2022-12-15T09:21:31.192Z,101002.00
2022-12-15T09:24:02.221Z,100998.16
2022-12-15T09:26:33.226Z,100995.59
2022-12-15T09:29:02.390Z,100999.34
2022-12-15T09:31:37.130Z,101000.72
2022-12-15T09:34:05.113Z,100999.78
2022-12-15T09:36:33.416Z,100996.78
2022-12-15T09:39:02.908Z,100979.72
2022-12-15T09:41:36.113Z,101000.19
2022-12-15T09:44:24.481Z,100996.41
2022-12-15T09:47:16.326Z,100982.81
2022-12-15T09:49:57.817Z,100973.97
2022-12-15T09:52:45.215Z,100970.44
2022-12-15T09:55:22.842Z,100961.72
2022-12-15T09:57:53.339Z,100952.94
2022-12-15T10:00:26.004Z,100962.47
2022-12-15T10:03:09.818Z,100949.31
2022-12-15T10:06:06.076Z,100945.00
2022-12-15T10:08:33.509Z,100939.56
2022-12-15T10:11:05.740Z,100940.00
2022-12-15T10:13:53.571Z,100939.44
2022-12-15T10:16:53.252Z,100935.59
2022-12-15T10:19:34.563Z,100928.87
2022-12-15T10:22:02.638Z,100927.38
2022-12-15T10:27:34.321Z,100909.97
2022-12-15T10:30:11.733Z,100908.25
2022-12-15T10:33:10.404Z,100899.44
2022-12-15T10:35:40.869Z,100903.28
2022-12-15T10:38:22.200Z,100894.78
2022-12-15T10:40:55.191Z,100895.28
2022-12-15T10:43:38.636Z,100894.84
2022-12-15T10:46:14.340Z,100892.47
2022-12-15T10:48:44.331Z,100902.63
2022-12-15T10:51:22.158Z,100911.06
2022-12-15T10:53:55.700Z,100909.16
2022-12-15T10:56:33.539Z,100910.16
2022-12-15T10:59:05.154Z,100906.28
2022-12-15T11:01:35.308Z,100906.00
2022-12-15T11:04:03.452Z,100903.94
2022-12-15T11:06:33.542Z,100908.69
2022-12-15T11:09:28.472Z,100907.53
2022-12-15T11:12:18.186Z,100911.09
2022-12-15T11:14:51.063Z,100915.88
2022-12-15T11:17:23.678Z,100925.84
2022-12-15T11:20:18.652Z,100930.12
2022-12-15T11:23:05.096Z,100929.75
2022-12-15T11:25:43.335Z,100933.72
2022-12-15T11:28:25.725Z,100936.47
2022-12-15T11:31:08.383Z,100936.31
2022-12-15T11:33:36.475Z,100943.47
2022-12-15T11:36:23.489Z,100944.66
2022-12-15T11:38:58.415Z,100944.31
2022-12-15T11:41:42.006Z,100951.19
2022-12-15T11:44:09.835Z,100951.09
2022-12-15T11:46:47.706Z,100954.16
2022-12-15T11:49:41.377Z,100955.97
2022-12-15T11:52:36.400Z,100949.37
2022-12-15T11:55:41.023Z,100954.16
2022-12-15T11:58:54.859Z,100953.94
2022-12-15T12:01:34.508Z,100958.03
2022-12-15T12:04:21.289Z,100946.75
2022-12-15T12:07:04.140Z,100938.81
2022-12-15T12:10:09.606Z,100936.00
2022-12-15T12:12:58.313Z,100932.19
2022-12-15T12:15:45.351Z,100937.84
2022-12-15T12:18:23.327Z,100933.09
2022-12-15T12:20:59.145Z,100937.22
2022-12-15T12:24:01.053Z,100925.63
2022-12-15T12:26:35.676Z,100930.34
2022-12-15T12:29:17.298Z,100922.72
2022-12-15T12:31:58.946Z,100925.56
2022-12-15T12:38:03.060Z,100918.72
2022-12-15T12:40:52.605Z,100914.38
2022-12-15T12:43:33.610Z,100909.31
2022-12-15T12:46:25.987Z,100910.94
2022-12-15T12:49:26.254Z,100896.81
2022-12-15T12:57:45.865Z,100904.63
2022-12-15T13:00:23.260Z,100895.78
2022-12-15T13:03:09.471Z,100895.78
2022-12-15T13:05:39.548Z,100875.00
2022-12-15T13:08:07.159Z,100876.81
2022-12-15T13:10:40.561Z,100880.53
2022-12-15T13:13:33.936Z,100869.53
2022-12-15T13:16:13.869Z,100867.16
2022-12-15T13:19:05.220Z,100859.16
2022-12-15T13:21:42.314Z,100855.69
2022-12-15T13:24:33.508Z,100843.53
2022-12-15T13:27:10.145Z,100839.38
2022-12-15T13:29:56.866Z,100837.53
2022-12-15T13:32:37.595Z,100832.38
2022-12-15T13:35:14.632Z,100829.81
2022-12-15T13:38:00.131Z,100828.66
2022-12-15T13:40:38.111Z,100828.50
2022-12-15T13:43:05.871Z,100827.75
2022-12-15T13:45:38.469Z,100818.25
2022-12-15T13:48:31.617Z,100821.06
2022-12-15T13:51:03.570Z,100828.66
2022-12-15T13:53:39.352Z,100809.94
2022-12-15T13:56:25.824Z,100812.47
2022-12-15T13:59:16.832Z,100809.38
2022-12-15T14:01:52.814Z,100795.28
2022-12-15T14:04:24.470Z,100795.63
2022-12-15T14:06:56.840Z,100800.59
2022-12-15T14:09:30.968Z,100786.28
2022-12-15T14:12:00.562Z,100784.25
2022-12-15T14:14:32.672Z,100773.88
2022-12-15T14:17:02.872Z,100783.53
2022-12-15T14:19:42.665Z,100777.59
2022-12-15T14:22:29.787Z,100774.44
2022-12-15T14:25:20.853Z,100778.44
2022-12-15T14:27:50.788Z,100768.87
2022-12-15T14:30:33.369Z,100774.97
2022-12-15T14:33:13.765Z,100772.28
2022-12-15T14:35:52.068Z,100772.47
2022-12-15T14:38:37.741Z,100763.16
2022-12-15T14:41:19.855Z,100776.75
2022-12-15T14:44:36.885Z,100773.03
2022-12-15T14:46:38.763Z,100761.22
2022-12-15T14:49:10.879Z,100763.06
2022-12-15T14:51:47.039Z,100760.31
2022-12-15T14:54:33.020Z,100754.66
2022-12-15T14:57:10.204Z,100762.91
2022-12-15T14:59:42.067Z,100744.12
2022-12-15T15:02:29.044Z,100747.34
2022-12-15T15:05:05.404Z,100747.91
2022-12-15T15:07:35.653Z,100747.69
2022-12-15T15:10:27.645Z,100741.56
2022-12-15T15:12:56.113Z,100743.75
2022-12-15T15:15:27.305Z,100757.09
2022-12-15T15:17:59.498Z,100773.19
2022-12-15T15:20:30.136Z,100764.97
2022-12-15T15:23:13.195Z,100774.50
2022-12-15T15:25:55.675Z,100770.06
2022-12-15T15:28:28.472Z,100769.06
2022-12-15T15:31:00.786Z,100771.88
2022-12-15T15:33:29.009Z,100772.28
2022-12-15T15:36:01.889Z,100760.66
2022-12-15T15:38:37.217Z,100755.81
2022-12-15T15:41:26.810Z,100750.28
2022-12-15T15:43:55.175Z,100752.13
2022-12-15T15:46:29.409Z,100749.81
2022-12-15T15:49:03.835Z,100748.97
2022-12-15T15:51:40.944Z,100748.06
2022-12-15T15:54:17.843Z,100742.09
2022-12-15T15:56:45.818Z,100739.69
2022-12-15T15:59:16.682Z,100743.62
2022-12-15T16:01:47.704Z,100735.97
2022-12-15T16:04:16.132Z,100742.69
2022-12-15T16:06:47.761Z,100730.66
2022-12-15T16:09:17.447Z,100715.06
2022-12-15T16:11:46.962Z,100717.69
2022-12-15T16:17:02.850Z,100707.25
2022-12-15T16:19:36.415Z,100703.41
2022-12-15T16:22:14.340Z,100684.59
2022-12-15T16:24:45.496Z,100676.28
2022-12-15T16:27:16.369Z,100678.00
2022-12-15T16:29:48.072Z,100683.06
2022-12-15T16:32:21.182Z,100671.00
2022-12-15T16:34:53.449Z,100670.16
2022-12-15T16:37:33.623Z,100650.75
2022-12-15T16:40:20.989Z,100657.56
2022-12-15T16:42:56.804Z,100644.03
2022-12-15T16:45:29.117Z,100661.06
2022-12-15T16:47:59.243Z,100648.91
2022-12-15T16:50:36.886Z,100653.31
2022-12-15T16:53:13.415Z,100647.97
2022-12-15T16:55:43.807Z,100641.28
2022-12-15T16:58:16.535Z,100637.00
2022-12-15T17:00:45.384Z,100635.19
2022-12-15T17:03:15.335Z,100626.56
2022-12-15T17:05:48.643Z,100613.00
2022-12-15T17:08:38.998Z,100616.34
2022-12-15T17:11:13.109Z,100612.38
2022-12-15T17:13:45.727Z,100593.97
2022-12-15T17:16:16.877Z,100598.31
2022-12-15T17:18:45.615Z,100589.75
2022-12-15T17:21:21.392Z,100583.94
2022-12-15T17:23:52.724Z,100578.78
2022-12-15T17:26:29.683Z,100580.69
2022-12-15T17:29:07.862Z,100579.78
2022-12-15T17:31:36.402Z,100580.44
2022-12-15T17:34:30.592Z,100575.22
2022-12-15T17:37:00.896Z,100574.41
2022-12-15T17:39:30.328Z,100568.50
2022-12-15T17:42:00.443Z,100559.09
2022-12-15T17:44:36.868Z,100534.28
2022-12-15T17:47:08.446Z,100560.78
2022-12-15T17:49:38.974Z,100549.56
2022-12-15T17:52:19.522Z,100549.56
2022-12-15T17:54:47.837Z,100542.72
2022-12-15T17:57:15.670Z,100542.91
2022-12-15T17:59:43.794Z,100532.47
2022-12-15T18:02:14.686Z,100537.91
2022-12-15T18:04:44.201Z,100525.66
2022-12-15T18:07:21.176Z,100524.09
2022-12-15T18:09:52.069Z,100512.00
2022-12-15T18:12:25.754Z,100511.78
2022-12-15T18:14:56.141Z,100507.84
2022-12-15T18:17:24.163Z,100509.31
2022-12-15T18:19:52.079Z,100492.06
2022-12-15T18:22:25.561Z,100481.13
2022-12-15T18:24:54.635Z,100484.34
2022-12-15T18:27:24.151Z,100487.09
2022-12-15T18:29:52.541Z,100480.19
2022-12-15T18:32:22.987Z,100467.41
2022-12-15T18:34:52.603Z,100455.28
2022-12-15T18:37:23.342Z,100452.00
2022-12-15T18:39:51.724Z,100452.38
2022-12-15T18:42:21.775Z,100441.00
2022-12-15T18:44:52.014Z,100432.06
2022-12-15T18:47:23.109Z,100424.28
2022-12-15T18:49:51.290Z,100424.50
2022-12-15T18:52:22.206Z,100411.50
2022-12-15T18:54:52.532Z,100408.00
2022-12-15T18:57:31.274Z,100384.03
2022-12-15T19:00:02.471Z,100377.38
2022-12-15T19:02:31.751Z,100380.72
2022-12-15T19:05:00.030Z,100369.72
2022-12-15T19:07:28.078Z,100352.66
2022-12-15T19:09:56.081Z,100337.09
2022-12-15T19:12:25.026Z,100342.19
2022-12-15T19:14:54.995Z,100338.03
2022-12-15T19:17:43.210Z,100331.13
2022-12-15T19:20:39.211Z,100333.59
2022-12-15T19:23:07.562Z,100324.22
2022-12-15T19:25:36.158Z,100311.31
2022-12-15T19:28:04.507Z,100312.31
2022-12-15T19:30:38.615Z,100315.59
2022-12-15T19:33:12.295Z,100309.56
2022-12-15T19:35:42.042Z,100308.97
2022-12-15T19:38:20.930Z,100303.66
2022-12-15T19:40:49.288Z,100290.19
2022-12-15T19:43:17.735Z,100307.12
2022-12-15T19:45:46.349Z,100300.69
2022-12-15T19:48:17.563Z,100301.97
2022-12-15T19:50:54.584Z,100303.59
2022-12-15T19:53:28.749Z,100301.87
2022-12-15T19:56:01.861Z,100298.44
2022-12-15T19:58:32.552Z,100284.41
2022-12-15T20:01:21.762Z,100288.19
2022-12-15T20:03:52.442Z,100288.25
2022-12-15T20:06:26.932Z,100288.41
2022-12-15T20:08:56.503Z,100291.56
2022-12-15T20:11:29.805Z,100287.56
2022-12-15T20:13:58.314Z,100291.56
2022-12-15T20:16:26.221Z,100287.44
2022-12-15T20:18:55.679Z,100283.12
2022-12-15T20:21:29.310Z,100277.97
2022-12-15T20:24:00.772Z,100280.47
2022-12-15T20:26:30.593Z,100285.69
2022-12-15T20:28:58.926Z,100285.63
2022-12-15T20:31:27.134Z,100278.00
2022-12-15T20:33:55.483Z,100276.50
2022-12-15T20:36:28.542Z,100287.47
2022-12-15T20:38:58.067Z,100270.41
2022-12-15T20:41:28.736Z,100278.03
2022-12-15T20:43:58.176Z,100278.69
2022-12-15T20:46:33.611Z,100278.56
2022-12-15T20:49:02.569Z,100263.97
2022-12-15T20:51:32.572Z,100268.06
2022-12-15T20:54:03.136Z,100266.09
2022-12-15T20:56:31.447Z,100265.94
2022-12-15T20:58:59.458Z,100269.22
2022-12-15T21:01:33.313Z,100263.38
2022-12-15T21:04:05.102Z,100262.69
2022-12-15T21:06:32.901Z,100252.84
2022-12-15T21:09:01.375Z,100251.34
2022-12-15T21:11:33.329Z,100248.97
2022-12-15T21:14:04.776Z,100248.62
2022-12-15T21:16:33.371Z,100242.41
2022-12-15T21:19:22.368Z,100242.66
2022-12-15T21:21:55.220Z,100242.88
2022-12-15T21:24:27.241Z,100251.00
2022-12-15T21:26:55.989Z,100253.16
2022-12-15T21:29:26.425Z,100233.91
2022-12-15T21:31:54.833Z,100224.66
2022-12-15T21:34:22.936Z,100227.09
2022-12-15T21:36:55.267Z,100219.44
2022-12-15T21:39:29.942Z,100225.59
2022-12-15T21:42:01.899Z,100219.06
2022-12-15T21:44:29.886Z,100205.84
2022-12-15T21:46:58.547Z,100219.63
2022-12-15T21:49:26.662Z,100210.34
2022-12-15T21:51:58.170Z,100201.69
2022-12-15T21:54:31.506Z,100205.97
2022-12-15T21:57:00.819Z,100197.13
2022-12-15T21:59:33.010Z,100193.69
2022-12-15T22:02:33.024Z,100194.16
2022-12-15T22:05:04.621Z,100186.06
2022-12-15T22:07:32.403Z,100199.06
2022-12-15T22:10:00.159Z,100179.16
2022-12-15T22:12:28.488Z,100172.19
2022-12-15T22:14:56.627Z,100173.19
2022-12-15T22:17:25.292Z,100186.97
2022-12-15T22:19:53.602Z,100182.50
2022-12-15T22:22:21.306Z,100176.53
2022-12-15T22:24:49.224Z,100180.47
2022-12-15T22:27:23.473Z,100175.56
2022-12-15T22:29:51.657Z,100175.56
2022-12-15T22:32:19.721Z,100178.91
2022-12-15T22:34:47.613Z,100183.16
2022-12-15T22:37:16.037Z,100176.19
2022-12-15T22:39:44.260Z,100169.19
2022-12-15T22:42:17.177Z,100177.62
2022-12-15T22:44:46.039Z,100182.38
2022-12-15T22:47:14.021Z,100181.66
2022-12-15T22:49:42.263Z,100179.47
2022-12-15T22:52:20.759Z,100176.53
2022-12-15T22:54:48.678Z,100185.28
2022-12-15T22:57:26.569Z,100183.94
2022-12-15T23:00:05.998Z,100172.16
2022-12-15T23:02:39.290Z,100179.63
2022-12-15T23:05:08.176Z,100180.16
2022-12-15T23:07:36.460Z,100167.06
2022-12-15T23:10:23.809Z,100170.44
2022-12-15T23:12:54.751Z,100171.81
2022-12-15T23:15:43.190Z,100170.09
2022-12-15T23:18:11.748Z,100157.16
2022-12-15T23:20:39.735Z,100161.06
2022-12-15T23:23:08.444Z,100170.59
2022-12-15T23:25:36.705Z,100165.97
2022-12-15T23:28:05.648Z,100166.19
2022-12-15T23:30:33.510Z,100155.94
2022-12-15T23:33:02.143Z,100162.03
2022-12-15T23:35:30.064Z,100157.78
2022-12-15T23:37:58.526Z,100155.72
2022-12-15T23:40:26.674Z,100154.91
2022-12-15T23:42:54.390Z,100151.69
2022-12-15T23:45:23.536Z,100146.88
2022-12-15T23:47:55.014Z,100144.84
2022-12-15T23:50:22.797Z,100148.22
2022-12-15T23:52:51.956Z,100143.75
2022-12-15T23:55:20.186Z,100128.41
2022-12-15T23:57:48.037Z,100142.09
